createdAt,value
2019-01-10T00:01:20.491Z,21.30
2019-01-10T00:03:47.007Z,21.30
2019-01-10T00:06:13.560Z,21.30
2019-01-10T00:08:40.404Z,21.30
2019-01-10T00:11:07.244Z,21.30
2019-01-10T00:13:33.780Z,21.30
2019-01-10T00:16:00.315Z,21.30
2019-01-10T00:18:27.178Z,21.30
2019-01-10T00:20:53.695Z,21.30
2019-01-10T00:23:20.530Z,21.30
2019-01-10T00:25:47.065Z,21.30
2019-01-10T00:28:13.599Z,21.30
2019-01-10T00:30:40.442Z,21.30
2019-01-10T00:33:07.283Z,21.30
2019-01-10T00:35:33.845Z,21.30
2019-01-10T00:38:00.354Z,21.30
2019-01-10T00:40:26.902Z,21.30
2019-01-10T00:42:53.727Z,21.30
2019-01-10T00:45:20.573Z,21.30
2019-01-10T00:47:47.111Z,21.30
2019-01-10T00:50:13.639Z,21.30
2019-01-10T00:52:40.173Z,21.30
2019-01-10T00:55:06.712Z,21.30
2019-01-10T00:57:33.551Z,21.30
2019-01-10T01:00:00.437Z,21.40
2019-01-10T01:02:27.636Z,21.30
2019-01-10T01:04:54.690Z,21.30
2019-01-10T01:07:21.531Z,21.30
2019-01-10T01:09:48.064Z,21.30
2019-01-10T01:12:14.907Z,21.30
2019-01-10T01:14:41.752Z,21.30
2019-01-10T01:17:08.590Z,21.30
2019-01-10T01:19:35.130Z,21.30
2019-01-10T01:22:01.663Z,21.30
2019-01-10T01:24:28.195Z,21.30
2019-01-10T01:26:55.035Z,21.20
2019-01-10T01:29:21.569Z,21.30
2019-01-10T01:31:48.417Z,21.20
2019-01-10T01:34:15.253Z,21.20
2019-01-10T01:36:42.093Z,21.20
2019-01-10T01:39:08.629Z,21.30
2019-01-10T01:41:35.474Z,21.30
2019-01-10T01:44:02.320Z,21.30
2019-01-10T01:46:28.855Z,21.30
2019-01-10T01:48:55.389Z,21.30
2019-01-10T01:51:22.229Z,21.30
2019-01-10T01:53:48.767Z,21.30
2019-01-10T01:56:15.598Z,21.30
2019-01-10T01:58:42.440Z,21.30
2019-01-10T02:01:08.974Z,21.30
2019-01-10T02:03:35.509Z,21.30
2019-01-10T02:06:02.044Z,21.30
2019-01-10T02:08:28.582Z,21.30
2019-01-10T02:10:55.112Z,21.30
2019-01-10T02:13:21.647Z,21.30
2019-01-10T02:15:48.187Z,21.30
2019-01-10T02:18:15.026Z,21.30
2019-01-10T02:20:41.557Z,21.30
2019-01-10T02:23:08.401Z,21.30
2019-01-10T02:25:34.943Z,21.20
2019-01-10T02:28:01.470Z,21.20
2019-01-10T02:30:28.003Z,21.20
2019-01-10T02:32:54.844Z,21.20
2019-01-10T02:35:21.690Z,21.30
2019-01-10T02:37:48.614Z,21.20
2019-01-10T02:40:16.292Z,21.20
2019-01-10T02:42:42.829Z,21.20
2019-01-10T02:45:09.448Z,21.20
2019-01-10T02:47:36.303Z,21.20
2019-01-10T02:50:02.843Z,21.20
2019-01-10T02:52:29.578Z,21.20
2019-01-10T02:54:56.116Z,21.20
2019-01-10T02:57:22.647Z,21.20
2019-01-10T02:59:49.215Z,21.20
2019-01-10T03:02:16.026Z,21.20
2019-01-10T03:04:42.565Z,21.20
2019-01-10T03:07:09.399Z,21.20
2019-01-10T03:09:35.944Z,21.20
2019-01-10T03:12:02.781Z,21.20
2019-01-10T03:14:29.310Z,21.20
2019-01-10T03:16:56.153Z,21.20
2019-01-10T03:19:22.691Z,21.20
2019-01-10T03:21:49.529Z,21.20
2019-01-10T03:24:16.062Z,21.20
2019-01-10T03:26:42.600Z,21.20
2019-01-10T03:29:11.481Z,21.20
2019-01-10T03:31:37.511Z,21.20
2019-01-10T03:34:04.043Z,21.20
2019-01-10T03:36:30.583Z,21.20
2019-01-10T03:38:57.422Z,21.20
2019-01-10T03:41:23.955Z,21.20
2019-01-10T03:43:50.797Z,21.10
2019-01-10T03:46:17.331Z,21.20
2019-01-10T03:48:43.867Z,21.10
2019-01-10T03:51:10.403Z,21.10
2019-01-10T03:53:36.939Z,21.10
2019-01-10T03:56:03.476Z,21.20
2019-01-10T03:58:30.005Z,21.10
2019-01-10T04:00:56.543Z,21.10
2019-01-10T04:03:23.382Z,21.10
2019-01-10T04:05:49.925Z,21.10
2019-01-10T04:08:16.756Z,21.10
2019-01-10T04:10:43.292Z,21.10
2019-01-10T04:13:10.132Z,21.10
2019-01-10T04:15:36.650Z,21.10
2019-01-10T04:18:03.201Z,21.10
2019-01-10T04:20:30.059Z,21.10
2019-01-10T04:22:56.885Z,21.10
2019-01-10T04:25:23.421Z,21.10
2019-01-10T04:27:49.954Z,21.10
2019-01-10T04:30:16.795Z,21.10
2019-01-10T04:32:43.330Z,21.10
2019-01-10T04:35:09.863Z,21.10
2019-01-10T04:37:36.708Z,21.10
2019-01-10T04:40:03.240Z,21.10
2019-01-10T04:42:30.082Z,21.10
2019-01-10T04:44:56.616Z,21.10
2019-01-10T04:47:23.459Z,21.10
2019-01-10T04:49:49.994Z,21.10
2019-01-10T04:52:16.526Z,21.10
2019-01-10T04:54:43.066Z,21.10
2019-01-10T04:57:09.596Z,21.00
2019-01-10T04:59:36.440Z,21.10
2019-01-10T05:02:02.973Z,21.00
2019-01-10T05:04:30.122Z,21.00
2019-01-10T05:06:56.664Z,21.00
2019-01-10T05:09:23.497Z,21.00
2019-01-10T05:11:50.133Z,21.00
2019-01-10T05:14:17.028Z,21.00
2019-01-10T05:16:43.726Z,21.00
2019-01-10T05:19:10.556Z,21.00
2019-01-10T05:21:37.121Z,21.00
2019-01-10T05:24:03.937Z,21.00
2019-01-10T05:26:30.466Z,21.00
2019-01-10T05:28:57.310Z,21.00
2019-01-10T05:31:24.150Z,21.00
2019-01-10T05:33:50.993Z,21.00
2019-01-10T05:36:17.836Z,21.00
2019-01-10T05:38:44.369Z,21.00
2019-01-10T05:41:10.902Z,21.00
2019-01-10T05:43:37.743Z,21.00
2019-01-10T05:46:04.293Z,21.00
2019-01-10T05:48:30.816Z,20.90
2019-01-10T05:50:57.660Z,20.90
2019-01-10T05:53:24.193Z,20.90
2019-01-10T05:55:50.727Z,21.00
2019-01-10T05:58:17.566Z,20.90
2019-01-10T06:00:44.407Z,20.90
2019-01-10T06:03:11.258Z,21.00
2019-01-10T06:05:37.784Z,20.90
2019-01-10T06:08:04.320Z,20.90
2019-01-10T06:10:31.161Z,20.90
2019-01-10T06:12:57.695Z,20.90
2019-01-10T06:15:24.538Z,20.90
2019-01-10T06:17:51.384Z,20.90
2019-01-10T06:20:17.914Z,20.90
2019-01-10T06:22:44.756Z,20.90
2019-01-10T06:25:11.272Z,20.90
2019-01-10T06:27:37.825Z,20.90
2019-01-10T06:30:04.357Z,20.90
2019-01-10T06:32:31.199Z,20.90
2019-01-10T06:34:57.734Z,20.90
2019-01-10T06:37:24.575Z,20.90
2019-01-10T06:39:51.114Z,20.90
2019-01-10T06:42:17.953Z,20.90
2019-01-10T06:44:44.984Z,20.90
2019-01-10T06:47:11.634Z,20.90
2019-01-10T06:49:38.171Z,20.90
2019-01-10T06:52:04.707Z,20.90
2019-01-10T06:54:31.241Z,20.90
2019-01-10T06:56:57.781Z,20.90
2019-01-10T06:59:24.713Z,20.90
2019-01-10T07:01:51.455Z,20.90
2019-01-10T07:04:17.994Z,20.90
2019-01-10T07:06:44.832Z,20.90
2019-01-10T07:09:11.368Z,20.90
2019-01-10T07:11:38.210Z,20.90
2019-01-10T07:14:04.744Z,20.90
2019-01-10T07:16:31.277Z,20.90
2019-01-10T07:18:58.122Z,20.90
2019-01-10T07:21:24.963Z,20.90
2019-01-10T07:23:51.802Z,20.90
2019-01-10T07:26:18.340Z,20.90
2019-01-10T07:28:45.178Z,20.90
2019-01-10T07:31:11.716Z,20.90
2019-01-10T07:33:38.248Z,20.90
2019-01-10T07:36:04.782Z,20.90
2019-01-10T07:38:31.629Z,20.90
2019-01-10T07:40:58.466Z,20.90
2019-01-10T07:43:25.393Z,21.00
2019-01-10T07:45:52.165Z,20.90
2019-01-10T07:48:18.994Z,21.00
2019-01-10T07:50:45.933Z,21.00
2019-01-10T07:53:12.983Z,21.00
2019-01-10T07:55:39.825Z,21.00
2019-01-10T07:58:06.363Z,21.00
2019-01-10T08:00:33.198Z,21.00
2019-01-10T08:02:59.738Z,21.00
2019-01-10T08:05:26.267Z,21.00
2019-01-10T08:07:53.109Z,21.00
2019-01-10T08:10:19.649Z,21.00
2019-01-10T08:12:46.099Z,21.00
2019-01-10T08:15:12.712Z,21.00
2019-01-10T08:17:39.248Z,21.00
2019-01-10T08:20:06.093Z,21.00
2019-01-10T08:22:32.623Z,21.00
2019-01-10T08:24:59.160Z,21.00
2019-01-10T08:27:25.999Z,21.00
2019-01-10T08:29:52.534Z,21.00
2019-01-10T08:32:19.068Z,21.00
2019-01-10T08:34:45.609Z,21.00
2019-01-10T08:37:12.446Z,21.00
2019-01-10T08:39:38.980Z,21.00
2019-01-10T08:42:05.620Z,21.00
2019-01-10T08:44:33.635Z,21.00
2019-01-10T08:47:00.430Z,21.00
2019-01-10T08:49:26.964Z,21.00
2019-01-10T08:51:53.496Z,21.00
2019-01-10T08:54:20.337Z,21.00
2019-01-10T08:56:46.870Z,21.00
2019-01-10T08:59:13.713Z,21.00
2019-01-10T09:01:40.253Z,21.00
2019-01-10T09:04:06.783Z,21.00
2019-01-10T09:06:33.318Z,21.00
2019-01-10T09:09:01.131Z,21.00
2019-01-10T09:11:27.922Z,21.00
2019-01-10T09:13:54.462Z,21.00
2019-01-10T09:16:20.994Z,21.00
2019-01-10T09:18:47.834Z,21.10
2019-01-10T09:21:14.680Z,21.10
2019-01-10T09:23:41.517Z,21.10
2019-01-10T09:26:08.052Z,21.10
2019-01-10T09:28:34.591Z,21.10
2019-01-10T09:31:01.119Z,21.10
2019-01-10T09:33:27.653Z,21.10
2019-01-10T09:35:54.188Z,21.10
2019-01-10T09:38:20.723Z,21.10
2019-01-10T09:40:47.565Z,21.10
2019-01-10T09:43:14.112Z,21.10
2019-01-10T09:45:43.495Z,21.10
2019-01-10T09:48:09.010Z,21.10
2019-01-10T09:50:35.550Z,21.10
2019-01-10T09:53:02.098Z,21.20
2019-01-10T09:55:28.615Z,21.10
2019-01-10T09:57:55.459Z,21.10
2019-01-10T10:00:21.999Z,21.20
2019-01-10T10:02:48.933Z,21.20
2019-01-10T10:05:15.673Z,21.20
2019-01-10T10:07:42.210Z,21.20
2019-01-10T10:10:08.743Z,21.20
2019-01-10T10:12:35.279Z,21.20
2019-01-10T10:15:01.820Z,21.20
2019-01-10T10:17:28.653Z,21.20
2019-01-10T10:19:55.189Z,21.20
2019-01-10T10:22:22.030Z,21.20
2019-01-10T10:24:48.564Z,21.20
2019-01-10T10:27:15.100Z,21.20
2019-01-10T10:29:41.633Z,21.20
2019-01-10T10:32:08.166Z,21.20
2019-01-10T10:34:35.007Z,21.30
2019-01-10T10:37:01.858Z,21.30
2019-01-10T10:39:28.692Z,21.30
2019-01-10T10:41:55.230Z,21.30
2019-01-10T10:44:21.762Z,21.30
2019-01-10T10:46:48.298Z,21.30
2019-01-10T10:49:17.427Z,21.30
2019-01-10T10:51:44.891Z,21.30
2019-01-10T10:54:11.588Z,21.30
2019-01-10T10:56:39.829Z,21.30
2019-01-10T10:59:06.497Z,21.30
2019-01-10T11:01:33.343Z,21.40
2019-01-10T11:04:00.184Z,21.40
2019-01-10T11:06:26.714Z,21.40
2019-01-10T11:08:53.267Z,21.40
2019-01-10T11:11:20.092Z,21.40
2019-01-10T11:13:46.630Z,21.40
2019-01-10T11:16:13.466Z,21.40
2019-01-10T11:18:40.001Z,21.40
2019-01-10T11:21:06.843Z,21.40
2019-01-10T11:23:33.384Z,21.40
2019-01-10T11:25:59.921Z,21.40
2019-01-10T11:28:26.754Z,21.40
2019-01-10T11:30:53.292Z,21.40
2019-01-10T11:33:20.151Z,21.40
2019-01-10T11:35:46.664Z,21.40
2019-01-10T11:38:13.202Z,21.50
2019-01-10T11:40:40.039Z,21.40
2019-01-10T11:43:06.574Z,21.40
2019-01-10T11:45:33.417Z,21.50
2019-01-10T11:47:59.951Z,21.50
2019-01-10T11:50:26.792Z,21.50
2019-01-10T11:52:53.328Z,21.50
2019-01-10T11:55:20.169Z,21.50
2019-01-10T11:57:46.704Z,21.50
2019-01-10T12:00:13.548Z,21.50
2019-01-10T12:02:40.398Z,21.50
2019-01-10T12:05:06.925Z,21.50
2019-01-10T12:07:33.455Z,21.50
2019-01-10T12:09:59.990Z,21.50
2019-01-10T12:12:26.831Z,21.60
2019-01-10T12:14:53.673Z,21.50
2019-01-10T12:17:20.214Z,21.50
2019-01-10T12:19:47.049Z,21.60
2019-01-10T12:22:13.893Z,21.60
2019-01-10T12:24:40.427Z,21.60
2019-01-10T12:27:07.268Z,21.60
2019-01-10T12:29:36.247Z,21.60
2019-01-10T12:32:02.197Z,21.60
2019-01-10T12:34:29.020Z,21.60
2019-01-10T12:37:00.256Z,21.60
2019-01-10T12:39:23.933Z,21.60
2019-01-10T12:41:50.471Z,21.60
2019-01-10T12:44:17.898Z,21.60
2019-01-10T12:46:44.463Z,21.60
2019-01-10T12:49:11.662Z,21.60
2019-01-10T12:51:38.755Z,21.60
2019-01-10T12:54:05.294Z,21.60
2019-01-10T12:56:32.131Z,21.60
2019-01-10T12:58:58.669Z,21.60
2019-01-10T13:01:25.222Z,21.60
2019-01-10T13:03:52.041Z,21.60
2019-01-10T13:06:18.884Z,21.60
2019-01-10T13:08:45.732Z,21.60
2019-01-10T13:11:12.566Z,21.60
2019-01-10T13:13:39.408Z,21.60
2019-01-10T13:16:05.943Z,21.60
2019-01-10T13:18:32.477Z,21.60
2019-01-10T13:20:59.367Z,21.60
2019-01-10T13:23:26.160Z,21.60
2019-01-10T13:25:59.481Z,21.60
2019-01-10T13:28:21.072Z,21.60
2019-01-10T13:30:47.609Z,21.60
2019-01-10T13:33:14.453Z,21.50
2019-01-10T13:35:41.292Z,21.60
2019-01-10T13:38:08.135Z,21.60
2019-01-10T13:40:34.975Z,21.60
2019-01-10T13:43:01.823Z,21.60
2019-01-10T13:45:28.355Z,21.60
2019-01-10T13:47:54.889Z,21.60
2019-01-10T13:50:21.419Z,21.60
2019-01-10T13:52:47.960Z,21.60
2019-01-10T13:55:14.800Z,21.60
2019-01-10T13:57:41.637Z,21.60
2019-01-10T14:00:08.171Z,21.60
2019-01-10T14:02:34.705Z,21.60
2019-01-10T14:05:01.550Z,21.60
2019-01-10T14:07:28.391Z,21.60
2019-01-10T14:09:54.922Z,21.50
2019-01-10T14:12:21.457Z,21.50
2019-01-10T14:14:47.994Z,21.50
2019-01-10T14:17:14.527Z,21.50
2019-01-10T14:19:41.374Z,21.60
2019-01-10T14:22:08.210Z,21.50
2019-01-10T14:24:34.745Z,21.50
2019-01-10T14:27:01.279Z,21.50
2019-01-10T14:29:27.830Z,21.50
2019-01-10T14:31:55.166Z,21.50
2019-01-10T14:34:21.820Z,21.50
2019-01-10T14:36:48.645Z,21.50
2019-01-10T14:39:15.486Z,21.50
2019-01-10T14:41:42.330Z,21.50
2019-01-10T14:44:09.171Z,21.50
2019-01-10T14:46:35.704Z,21.50
2019-01-10T14:49:02.547Z,21.50
2019-01-10T14:51:29.388Z,21.50
2019-01-10T14:53:56.598Z,21.50
2019-01-10T14:56:23.380Z,21.50
2019-01-10T14:58:50.224Z,21.50
2019-01-10T15:01:16.755Z,21.50
2019-01-10T15:03:43.600Z,21.50
2019-01-10T15:06:10.142Z,21.50
2019-01-10T15:08:36.668Z,21.50
2019-01-10T15:11:03.509Z,21.50
2019-01-10T15:13:30.029Z,21.50
2019-01-10T15:15:56.889Z,21.50
2019-01-10T15:18:23.422Z,21.50
2019-01-10T15:20:50.259Z,21.50
2019-01-10T15:23:17.100Z,21.50
2019-01-10T15:25:43.942Z,21.50
2019-01-10T15:28:10.479Z,21.50
2019-01-10T15:30:37.015Z,21.40
2019-01-10T15:33:03.858Z,21.40
2019-01-10T15:35:30.698Z,21.40
2019-01-10T15:37:57.863Z,21.40
2019-01-10T15:40:24.379Z,21.40
2019-01-10T15:42:50.913Z,21.40
2019-01-10T15:45:17.585Z,21.40
2019-01-10T15:47:44.288Z,21.40
2019-01-10T15:50:11.129Z,21.40
2019-01-10T15:52:37.666Z,21.40
2019-01-10T15:55:04.199Z,21.40
2019-01-10T15:57:31.039Z,21.40
2019-01-10T15:59:57.577Z,21.40
2019-01-10T16:02:24.416Z,21.40
2019-01-10T16:04:51.261Z,21.40
2019-01-10T16:07:17.793Z,21.40
2019-01-10T16:09:44.635Z,21.40
2019-01-10T16:12:11.169Z,21.40
2019-01-10T16:14:38.010Z,21.40
2019-01-10T16:17:04.548Z,21.40
2019-01-10T16:19:31.082Z,21.40
2019-01-10T16:21:57.619Z,21.40
2019-01-10T16:24:24.456Z,21.40
2019-01-10T16:26:51.297Z,21.30
2019-01-10T16:29:17.813Z,21.30
2019-01-10T16:31:44.369Z,21.40
2019-01-10T16:34:11.208Z,21.30
2019-01-10T16:36:37.745Z,21.30
2019-01-10T16:39:04.584Z,21.30
2019-01-10T16:41:31.119Z,21.30
2019-01-10T16:43:57.654Z,21.30
2019-01-10T16:46:24.189Z,21.30
2019-01-10T16:48:51.029Z,21.30
2019-01-10T16:51:17.565Z,21.30
2019-01-10T16:53:44.098Z,21.30
2019-01-10T16:56:10.634Z,21.30
2019-01-10T16:58:37.474Z,21.30
2019-01-10T17:01:04.014Z,21.30
2019-01-10T17:03:30.850Z,21.30
2019-01-10T17:05:57.385Z,21.30
2019-01-10T17:08:23.922Z,21.30
2019-01-10T17:10:51.383Z,21.30
2019-01-10T17:13:18.222Z,21.30
2019-01-10T17:15:44.815Z,21.30
2019-01-10T17:18:11.593Z,21.30
2019-01-10T17:20:38.435Z,21.30
2019-01-10T17:23:05.278Z,21.30
2019-01-10T17:25:31.811Z,21.20
2019-01-10T17:27:58.366Z,21.20
2019-01-10T17:30:25.186Z,21.20
2019-01-10T17:32:51.722Z,21.20
2019-01-10T17:35:18.258Z,21.20
2019-01-10T17:37:44.796Z,21.20
2019-01-10T17:40:11.640Z,21.20
2019-01-10T17:42:38.167Z,21.20
2019-01-10T17:45:04.701Z,21.20
2019-01-10T17:47:31.552Z,21.20
2019-01-10T17:49:58.078Z,21.20
2019-01-10T17:52:25.126Z,21.20
2019-01-10T17:54:52.379Z,21.20
2019-01-10T17:57:19.218Z,21.20
2019-01-10T17:59:45.752Z,21.20
2019-01-10T18:02:12.286Z,21.20
2019-01-10T18:04:38.820Z,21.20
2019-01-10T18:07:05.357Z,21.20
2019-01-10T18:09:32.204Z,21.20
2019-01-10T18:11:59.042Z,21.20
2019-01-10T18:14:25.596Z,21.20
2019-01-10T18:16:52.425Z,21.20
2019-01-10T18:19:18.958Z,21.10
2019-01-10T18:21:46.075Z,21.20
2019-01-10T18:24:12.939Z,21.20
2019-01-10T18:26:39.479Z,21.10
2019-01-10T18:29:06.321Z,21.10
2019-01-10T18:31:33.163Z,21.10
2019-01-10T18:33:59.693Z,21.10
2019-01-10T18:36:26.227Z,21.10
2019-01-10T18:38:52.764Z,21.10
2019-01-10T18:41:19.815Z,21.20
2019-01-10T18:43:47.055Z,21.10
2019-01-10T18:46:13.900Z,21.10
2019-01-10T18:48:40.741Z,21.10
2019-01-10T18:51:07.591Z,21.10
2019-01-10T18:53:34.120Z,21.10
2019-01-10T18:56:00.961Z,21.10
2019-01-10T18:58:27.800Z,21.20
2019-01-10T19:00:54.336Z,21.10
2019-01-10T19:03:21.177Z,21.10
2019-01-10T19:05:48.018Z,21.10
2019-01-10T19:08:14.884Z,21.10
2019-01-10T19:10:41.394Z,21.10
2019-01-10T19:13:08.236Z,21.10
2019-01-10T19:15:35.080Z,21.10
2019-01-10T19:18:03.587Z,21.10
2019-01-10T19:20:30.001Z,21.10
2019-01-10T19:22:56.528Z,21.10
2019-01-10T19:25:23.059Z,21.10
2019-01-10T19:27:49.907Z,21.10
2019-01-10T19:30:16.748Z,21.10
2019-01-10T19:32:43.585Z,21.10
2019-01-10T19:35:10.429Z,21.10
2019-01-10T19:37:36.967Z,21.10
2019-01-10T19:40:03.815Z,21.10
2019-01-10T19:42:30.647Z,21.10
2019-01-10T19:44:57.184Z,21.10
2019-01-10T19:47:24.020Z,21.10
2019-01-10T19:49:50.554Z,21.10
2019-01-10T19:52:17.280Z,21.10
2019-01-10T19:54:43.930Z,21.10
2019-01-10T19:57:10.775Z,21.10
2019-01-10T19:59:37.337Z,21.10
2019-01-10T20:02:03.840Z,21.10
2019-01-10T20:04:30.693Z,21.10
2019-01-10T20:06:57.218Z,21.10
2019-01-10T20:09:29.849Z,21.10
2019-01-10T20:11:52.129Z,21.10
2019-01-10T20:14:18.975Z,21.10
2019-01-10T20:16:45.506Z,21.10
2019-01-10T20:19:12.040Z,21.10
2019-01-10T20:21:38.576Z,21.10
2019-01-10T20:24:05.416Z,21.10
2019-01-10T20:26:31.951Z,21.10
2019-01-10T20:28:58.487Z,21.10
2019-01-10T20:31:25.328Z,21.10
2019-01-10T20:33:52.168Z,21.20
2019-01-10T20:36:18.705Z,21.20
2019-01-10T20:38:45.546Z,21.20
2019-01-10T20:41:12.386Z,21.20
2019-01-10T20:43:39.227Z,21.20
2019-01-10T20:46:05.763Z,21.20
2019-01-10T20:48:32.604Z,21.20
2019-01-10T20:50:59.137Z,21.20
2019-01-10T20:53:26.082Z,21.20
2019-01-10T20:55:52.828Z,21.30
2019-01-10T20:58:19.357Z,21.30
2019-01-10T21:00:46.198Z,21.30
2019-01-10T21:03:13.040Z,21.30
2019-01-10T21:05:39.883Z,21.30
2019-01-10T21:08:06.429Z,21.30
2019-01-10T21:10:32.959Z,21.30
2019-01-10T21:12:59.490Z,21.30
2019-01-10T21:15:26.020Z,21.30
2019-01-10T21:17:52.860Z,21.30
2019-01-10T21:20:19.395Z,21.30
2019-01-10T21:22:45.929Z,21.30
2019-01-10T21:25:12.776Z,21.30
2019-01-10T21:27:39.613Z,21.40
2019-01-10T21:30:06.454Z,21.40
2019-01-10T21:32:32.995Z,21.40
2019-01-10T21:34:59.529Z,21.40
2019-01-10T21:37:26.368Z,21.40
2019-01-10T21:39:52.901Z,21.40
2019-01-10T21:42:19.434Z,21.40
2019-01-10T21:44:45.972Z,21.30
2019-01-10T21:47:12.504Z,21.40
2019-01-10T21:49:39.345Z,21.40
2019-01-10T21:52:05.878Z,21.40
2019-01-10T21:54:32.722Z,21.40
2019-01-10T21:56:59.561Z,21.40
2019-01-10T21:59:26.406Z,21.40
2019-01-10T22:01:52.938Z,21.40
2019-01-10T22:04:19.476Z,21.40
2019-01-10T22:06:46.317Z,21.40
2019-01-10T22:09:13.158Z,21.40
2019-01-10T22:11:39.700Z,21.40
2019-01-10T22:14:06.532Z,21.40
2019-01-10T22:16:33.067Z,21.40
2019-01-10T22:18:59.909Z,21.50
2019-01-10T22:21:26.750Z,21.50
2019-01-10T22:23:53.284Z,21.50
2019-01-10T22:26:20.153Z,21.50
2019-01-10T22:28:46.661Z,21.50
2019-01-10T22:31:13.489Z,21.50
2019-01-10T22:33:40.343Z,21.50
2019-01-10T22:36:07.185Z,21.40
2019-01-10T22:38:34.030Z,21.40
2019-01-10T22:41:00.868Z,21.40
2019-01-10T22:43:27.404Z,21.40
2019-01-10T22:45:53.938Z,21.40
2019-01-10T22:48:20.781Z,21.40
2019-01-10T22:50:47.622Z,21.40
2019-01-10T22:53:14.146Z,21.40
2019-01-10T22:55:40.691Z,21.40
2019-01-10T22:58:07.224Z,21.40
2019-01-10T23:00:33.759Z,21.40
2019-01-10T23:03:00.601Z,21.40
2019-01-10T23:05:27.442Z,21.40
2019-01-10T23:07:54.283Z,21.40
2019-01-10T23:10:20.832Z,21.40
2019-01-10T23:12:47.660Z,21.30
2019-01-10T23:15:14.195Z,21.30
2019-01-10T23:17:41.035Z,21.30
2019-01-10T23:20:07.570Z,21.30
2019-01-10T23:22:34.107Z,21.30
2019-01-10T23:25:00.642Z,21.30
2019-01-10T23:27:27.175Z,21.30
2019-01-10T23:29:54.006Z,21.30
2019-01-10T23:32:20.579Z,21.30
2019-01-10T23:34:47.105Z,21.30
2019-01-10T23:37:13.627Z,21.30
2019-01-10T23:39:40.158Z,21.30
2019-01-10T23:42:06.774Z,21.30
2019-01-10T23:44:33.536Z,21.30
2019-01-10T23:47:00.068Z,21.30
2019-01-10T23:49:26.941Z,21.30
2019-01-10T23:51:53.752Z,21.30
2019-01-10T23:54:20.286Z,21.30
2019-01-10T23:56:47.133Z,21.30
2019-01-10T23:59:13.972Z,21.30
